Time;durP1;ratioP1;P1;durP2;ratioP2;P2;SDS_P1;SDS_P2;PMS_P1;PMS_P2;Temp;Humidity;BMP_temperature;BMP_pressure;BME280_temperature;BME280_humidity;BME280_pressure;Samples;Min_cycle;Max_cycle;Signal;HPM_P1;HPM_P2
2021/01/26 00:02:14;;;;;;;24.30;13.75;;;;;;;-0.16;83.21;95721.19;5089952;28;20040;-65
2021/01/26 00:04:40;;;;;;;23.17;13.07;;;;;;;-0.15;83.08;95731.66;5089956;28;20686;-66
2021/01/26 00:07:07;;;;;;;27.13;15.18;;;;;;;-0.14;83.06;95732.47;5089378;28;20052;-66
2021/01/26 00:09:33;;;;;;;26.15;14.48;;;;;;;-0.25;83.08;95733.53;5095798;28;20052;-66
2021/01/26 00:11:59;;;;;;;26.83;14.65;;;;;;;-0.39;83.49;95747.38;5110004;28;20461;-66
2021/01/26 00:14:25;;;;;;;26.58;14.73;;;;;;;-0.46;83.79;95738.81;5109435;28;20846;-66
2021/01/26 00:16:51;;;;;;;22.35;13.52;;;;;;;-0.37;83.63;95747.09;5109869;28;20074;-66
2021/01/26 00:19:17;;;;;;;23.50;13.27;;;;;;;-0.29;83.40;95744.75;5109350;28;20075;-66
2021/01/26 00:21:43;;;;;;;23.85;14.27;;;;;;;-0.25;83.10;95749.56;5109880;28;20040;-66
2021/01/26 00:24:11;;;;;;;23.50;13.07;;;;;;;-0.24;83.07;95751.19;5109218;28;20120;-66
2021/01/26 00:26:37;;;;;;;23.05;13.60;;;;;;;-0.32;83.13;95750.59;5109596;28;20391;-66
2021/01/26 00:29:07;;;;;;;24.60;13.50;;;;;;;-0.30;83.25;95753.03;5095635;28;20112;-67
2021/01/26 00:31:33;;;;;;;24.25;13.00;;;;;;;-0.25;83.04;95749.56;5090182;28;20055;-66
2021/01/26 00:33:59;;;;;;;26.63;14.30;;;;;;;-0.24;82.92;95756.53;5089078;28;20504;-66
2021/01/26 00:36:25;;;;;;;27.02;14.55;;;;;;;-0.34;82.95;95755.41;5088787;28;20048;-66
2021/01/26 00:38:51;;;;;;;27.73;15.05;;;;;;;-0.35;83.13;95745.78;5089341;28;20467;-66
2021/01/26 00:41:18;;;;;;;27.48;15.07;;;;;;;-0.39;83.49;95751.94;5108894;28;20047;-66
2021/01/26 00:43:44;;;;;;;27.90;15.10;;;;;;;-0.32;83.37;95755.94;5109307;28;20043;-66
2021/01/26 00:46:10;;;;;;;27.00;15.35;;;;;;;-0.31;83.29;95762.13;5109026;28;20051;-66
2021/01/26 00:48:36;;;;;;;28.05;15.00;;;;;;;-0.39;83.57;95760.75;5109248;28;20104;-66
2021/01/26 00:51:03;;;;;;;28.48;15.82;;;;;;;-0.36;83.64;95765.59;5108345;28;20510;-66
2021/01/26 00:53:28;;;;;;;29.60;15.73;;;;;;;-0.39;83.83;95766.09;5109156;28;20051;-66
2021/01/26 00:55:54;;;;;;;29.13;16.83;;;;;;;-0.40;84.00;95774.41;5108192;28;20048;-66
2021/01/26 00:58:21;;;;;;;28.73;16.20;;;;;;;-0.48;84.55;95774.91;5101169;28;20465;-66
2021/01/26 01:00:47;;;;;;;30.80;16.73;;;;;;;-0.46;84.41;95776.25;5088606;28;20059;-66
2021/01/26 01:03:13;;;;;;;33.58;17.15;;;;;;;-0.40;84.58;95775.19;5088306;28;20464;-66
2021/01/26 01:05:39;;;;;;;32.85;16.65;;;;;;;-0.37;84.15;95780.00;5088589;28;20161;-66
2021/01/26 01:08:05;;;;;;;31.10;16.55;;;;;;;-0.38;84.12;95789.09;5088168;28;20056;-66
2021/01/26 01:10:36;;;;;;;31.40;17.10;;;;;;;-0.46;84.37;95786.97;5102997;28;20058;-66
2021/01/26 01:13:02;;;;;;;28.48;16.08;;;;;;;-0.48;84.34;95783.72;5108523;28;20051;-67
2021/01/26 01:15:29;;;;;;;29.40;16.15;;;;;;;-0.47;84.55;95787.19;5108877;28;20058;-66
2021/01/26 01:17:54;;;;;;;31.80;16.58;;;;;;;-0.49;84.53;95795.50;5108546;28;20470;-66
2021/01/26 01:20:25;;;;;;;31.08;16.52;;;;;;;-0.50;84.57;95793.88;5107713;28;20055;-66
2021/01/26 01:22:51;;;;;;;28.35;15.60;;;;;;;-0.54;84.66;95790.13;5109000;28;20043;-66
2021/01/26 01:25:17;;;;;;;28.15;16.27;;;;;;;-0.59;84.92;95798.91;5108143;28;20043;-66
2021/01/26 01:27:44;;;;;;;27.35;15.20;;;;;;;-0.49;84.90;95795.50;5105946;28;20047;-66
2021/01/26 01:30:12;;;;;;;25.52;14.20;;;;;;;-0.46;84.76;95802.19;5089446;28;20701;-65
2021/01/26 01:32:39;;;;;;;28.88;15.32;;;;;;;-0.55;84.88;95800.00;5100947;28;20514;-66
2021/01/26 01:35:07;;;;;;;28.08;15.43;;;;;;;-0.55;85.20;95805.38;5090603;28;20056;-66
2021/01/26 01:37:32;;;;;;;26.95;15.48;;;;;;;-0.48;85.21;95802.44;5091389;28;20062;-66
2021/01/26 01:39:58;;;;;;;25.60;15.02;;;;;;;-0.48;85.31;95810.47;5101617;28;20483;-66
2021/01/26 01:42:24;;;;;;;29.40;15.50;;;;;;;-0.59;85.64;95809.63;5110937;28;20039;-66
2021/01/26 01:44:50;;;;;;;31.33;16.50;;;;;;;-0.54;85.67;95808.84;5111495;28;20498;-66
2021/01/26 01:47:22;;;;;;;27.45;15.88;;;;;;;-0.58;85.49;95815.78;5110812;28;20062;-66
2021/01/26 01:49:49;;;;;;;27.67;16.23;;;;;;;-0.76;86.12;95822.38;5111404;28;20073;-66
2021/01/26 01:52:21;;;;;;;30.38;16.73;;;;;;;-0.69;86.17;95824.81;5110987;28;20039;-66
2021/01/26 01:54:53;;;;;;;29.90;16.05;;;;;;;-0.67;85.68;95828.03;5111382;28;20061;-66
2021/01/26 01:57:22;;;;;;;28.33;15.52;;;;;;;-0.64;85.16;95835.53;5111008;28;20051;-66
2021/01/26 01:59:53;;;;;;;27.48;15.65;;;;;;;-0.71;85.13;95837.66;5091846;28;20051;-66
2021/01/26 02:02:19;;;;;;;28.15;15.65;;;;;;;-0.68;85.26;95835.28;5091452;28;20048;-66
2021/01/26 02:04:45;;;;;;;27.85;15.75;;;;;;;-0.64;85.18;95832.84;5090889;28;20048;-66
2021/01/26 02:07:12;;;;;;;25.98;15.25;;;;;;;-0.60;84.76;95850.00;5090653;28;20071;-66
2021/01/26 02:09:41;;;;;;;28.02;15.63;;;;;;;-0.49;84.60;95845.50;5098151;28;20043;-66
2021/01/26 02:12:10;;;;;;;25.92;15.23;;;;;;;-0.59;84.37;95843.59;5110907;28;20039;-66
2021/01/26 02:14:39;;;;;;;23.70;13.75;;;;;;;-0.56;83.86;95848.41;5113118;28;20043;-66
2021/01/26 02:17:13;;;;;;;22.58;13.23;;;;;;;-0.53;83.30;95850.56;5115013;28;20052;-66
2021/01/26 02:20:12;;;;;;;23.27;12.75;;;;;;;-0.48;83.09;95845.25;5115417;28;20035;-66
2021/01/26 02:23:27;;;;;;;20.20;12.80;;;;;;;-0.53;82.33;95848.69;5115373;28;20036;-66
2021/01/26 02:26:38;;;;;;;20.42;10.98;;;;;;;-0.63;81.77;95863.88;5115123;28;20067;-66
2021/01/26 02:29:06;;;;;;;16.92;10.13;;;;;;;-0.67;80.83;95865.47;5101063;28;20048;-66
2021/01/26 02:31:59;;;;;;;16.92;9.77;;;;;;;-0.73;79.77;95870.00;5095629;28;20051;-66
2021/01/26 02:34:54;;;;;;;16.98;9.90;;;;;;;-0.79;79.58;95879.03;5094334;28;20044;-66
2021/01/26 02:38:00;;;;;;;17.70;9.73;;;;;;;-0.79;79.38;95887.03;5094252;28;20048;-66
2021/01/26 02:40:34;;;;;;;18.55;9.20;;;;;;;-0.77;79.04;95886.81;5090252;28;20052;-66
2021/01/26 02:43:15;;;;;;;16.05;9.30;;;;;;;-0.89;78.92;95890.47;5115006;28;20044;-66
2021/01/26 02:45:48;;;;;;;15.18;8.60;;;;;;;-0.92;78.58;95884.81;5114961;28;20475;-66
2021/01/26 02:48:34;;;;;;;15.50;7.93;;;;;;;-0.91;78.46;95892.56;5114340;28;20089;-66
2021/01/26 02:51:04;;;;;;;15.45;8.40;;;;;;;-0.88;78.02;95897.44;5114892;28;20048;-66
2021/01/26 02:53:36;;;;;;;14.65;7.85;;;;;;;-0.85;77.60;95907.59;5114636;28;20100;-66
2021/01/26 02:56:10;;;;;;;10.27;5.60;;;;;;;-0.80;77.41;95899.59;5114546;28;20046;-67
2021/01/26 02:58:42;;;;;;;13.95;7.75;;;;;;;-0.90;76.81;95904.88;5104933;28;20048;-66
2021/01/26 03:01:09;;;;;;;15.43;8.63;;;;;;;-0.92;76.98;95911.56;5093961;28;20044;-66
2021/01/26 03:03:40;;;;;;;15.07;8.70;;;;;;;-0.89;77.16;95911.84;5094795;28;20055;-66
2021/01/26 03:06:09;;;;;;;16.88;9.25;;;;;;;-0.87;77.14;95915.06;5093564;28;20044;-67
2021/01/26 03:08:41;;;;;;;18.13;9.45;;;;;;;-0.81;77.25;95923.94;5093871;28;20048;-66
2021/01/26 03:11:14;;;;;;;16.90;9.32;;;;;;;-0.76;77.43;95918.63;5113316;28;20059;-66
2021/01/26 03:13:45;;;;;;;16.52;9.57;;;;;;;-0.72;77.20;95929.63;5114369;28;20100;-66
2021/01/26 03:16:15;;;;;;;18.58;9.77;;;;;;;-0.72;77.11;95926.94;5114034;28;20048;-66
2021/01/26 03:18:47;;;;;;;19.52;10.70;;;;;;;-0.68;77.23;95934.19;5114116;28;20035;-66
2021/01/26 03:21:15;;;;;;;18.70;10.82;;;;;;;-0.64;77.31;95937.16;5113819;28;20039;-66
2021/01/26 03:23:45;;;;;;;21.42;11.60;;;;;;;-0.60;77.28;95936.38;5114015;28;20051;-66
2021/01/26 03:26:15;;;;;;;21.50;11.75;;;;;;;-0.73;77.20;95947.53;5105327;27;20047;-66
2021/01/26 03:28:44;;;;;;;19.13;11.35;;;;;;;-0.69;77.10;95942.44;5093726;28;20044;-66
2021/01/26 03:31:14;;;;;;;21.27;11.35;;;;;;;-0.75;77.66;95944.28;5092579;28;20562;-67
2021/01/26 03:33:45;;;;;;;20.42;11.32;;;;;;;-0.74;77.90;95942.41;5094129;28;20495;-66
2021/01/26 03:36:11;;;;;;;20.30;11.40;;;;;;;-0.76;77.80;95944.56;5092994;28;20057;-67
2021/01/26 03:38:37;;;;;;;20.83;11.52;;;;;;;-0.70;77.80;95947.00;5093458;28;20123;-66
2021/01/26 03:41:06;;;;;;;19.13;11.30;;;;;;;-0.73;77.62;95954.72;5111727;28;20104;-67
2021/01/26 03:43:33;;;;;;;20.58;11.10;;;;;;;-0.71;77.65;95950.75;5113714;28;20081;-66
2021/01/26 03:46:06;;;;;;;21.42;12.40;;;;;;;-0.75;77.53;95954.97;5113127;28;20051;-66
2021/01/26 03:48:45;;;;;;;24.48;12.57;;;;;;;-0.74;77.98;95961.94;5113239;28;20441;-66
2021/01/26 03:51:19;;;;;;;23.20;13.20;;;;;;;-0.71;78.12;95961.44;5113018;28;20387;-66
2021/01/26 03:54:32;;;;;;;22.55;12.32;;;;;;;-0.74;78.51;95966.47;5112170;28;20051;-66
2021/01/26 03:57:25;;;;;;;23.58;12.57;;;;;;;-0.72;78.68;95964.38;5092243;28;20523;-66
2021/01/26 04:00:03;;;;;;;22.38;12.25;;;;;;;-0.71;78.63;95966.78;5112697;28;20043;-66
2021/01/26 04:02:35;;;;;;;24.13;13.32;;;;;;;-0.67;78.71;95975.09;5110998;28;20418;-66
2021/01/26 04:05:12;;;;;;;26.10;14.60;;;;;;;-0.80;79.06;95977.13;5113227;28;20039;-66
2021/01/26 04:07:42;;;;;;;26.70;14.10;;;;;;;-0.82;79.43;95987.28;5111968;28;20040;-66
2021/01/26 04:10:14;;;;;;;26.50;14.13;;;;;;;-0.86;79.90;95975.47;5112229;28;20459;-66
2021/01/26 04:12:43;;;;;;;26.27;14.32;;;;;;;-0.89;80.10;95981.34;5112224;28;20043;-66
2021/01/26 04:15:17;;;;;;;24.55;14.20;;;;;;;-0.88;79.52;95974.94;5111972;28;20402;-66
2021/01/26 04:17:47;;;;;;;20.40;12.55;;;;;;;-0.93;79.55;95982.91;5112550;28;20552;-66
2021/01/26 04:20:18;;;;;;;21.25;12.07;;;;;;;-0.97;79.13;95984.47;5111399;28;20047;-66
2021/01/26 04:22:45;;;;;;;19.70;11.60;;;;;;;-1.02;78.59;95981.75;5112850;28;20051;-66
2021/01/26 04:25:28;;;;;;;20.95;11.95;;;;;;;-1.02;78.47;95987.09;5111105;28;20044;-66
2021/01/26 04:27:54;;;;;;;19.45;11.38;;;;;;;-1.10;77.46;95987.53;5112664;28;20062;-66
2021/01/26 04:30:22;;;;;;;17.38;10.48;;;;;;;-1.10;77.03;95984.88;5111176;28;20043;-66
2021/01/26 04:32:55;;;;;;;18.33;10.30;;;;;;;-1.21;76.84;95999.19;5111920;28;20043;-66
2021/01/26 04:35:21;;;;;;;18.85;10.10;;;;;;;-1.32;76.81;95998.28;5112264;28;20055;-66
2021/01/26 04:37:47;;;;;;;15.05;9.13;;;;;;;-1.43;76.69;95996.56;5112063;28;20092;-66
2021/01/26 04:40:13;;;;;;;16.30;9.25;;;;;;;-1.50;76.80;95990.63;5112145;28;20048;-66
2021/01/26 04:42:41;;;;;;;13.07;8.27;;;;;;;-1.50;76.36;96002.13;5112473;28;20437;-66
2021/01/26 04:45:12;;;;;;;15.57;8.23;;;;;;;-1.60;75.69;95996.66;5112139;28;20044;-66
2021/01/26 04:47:45;;;;;;;15.48;8.90;;;;;;;-1.60;74.98;95996.66;5112609;28;20043;-66
2021/01/26 04:50:26;;;;;;;13.52;8.02;;;;;;;-1.62;74.30;95999.59;5111832;28;20490;-66
2021/01/26 04:53:32;;;;;;;13.57;7.72;;;;;;;-1.62;74.14;95996.09;5112555;28;20104;-64
2021/01/26 04:56:06;;;;;;;13.20;8.20;;;;;;;-1.70;73.72;95996.53;5112264;28;20044;-64
2021/01/26 04:58:51;;;;;;;13.85;7.53;;;;;;;-1.73;73.67;95991.69;5112206;28;20123;-64
2021/01/26 05:01:32;;;;;;;12.15;7.45;;;;;;;-1.73;73.96;95997.03;5111684;28;20071;-64
2021/01/26 05:04:04;;;;;;;12.15;7.07;;;;;;;-1.80;74.29;95991.06;5110158;28;20444;-64
2021/01/26 05:06:35;;;;;;;14.15;7.38;;;;;;;-1.80;74.47;95996.41;5112029;28;20047;-64
2021/01/26 05:09:06;;;;;;;11.15;6.70;;;;;;;-1.74;74.38;95995.41;5111369;28;20448;-66
2021/01/26 05:11:37;;;;;;;11.82;6.93;;;;;;;-1.81;74.83;95994.81;5112099;28;20064;-64
2021/01/26 05:14:11;;;;;;;13.77;7.80;;;;;;;-1.76;75.10;95997.53;5111522;28;20043;-65
2021/01/26 05:16:43;;;;;;;13.68;8.10;;;;;;;-1.87;75.73;96005.41;5111962;28;20050;-64
2021/01/26 05:19:15;;;;;;;15.13;8.43;;;;;;;-1.85;75.95;96005.97;5111412;28;20498;-64
2021/01/26 05:21:48;;;;;;;15.63;9.40;;;;;;;-1.82;76.37;96009.22;5111880;28;20039;-64
2021/01/26 05:24:21;;;;;;;17.07;9.60;;;;;;;-1.76;76.58;96013.56;5111491;28;20047;-64
2021/01/26 05:26:47;;;;;;;17.67;9.70;;;;;;;-1.64;76.48;96016.91;5111673;28;20059;-66
2021/01/26 05:29:14;;;;;;;18.08;10.20;;;;;;;-1.60;76.71;96018.03;5111646;28;20054;-64
2021/01/26 05:31:42;;;;;;;18.58;10.23;;;;;;;-1.65;77.29;96017.97;5111606;28;20048;-64
2021/01/26 05:34:11;;;;;;;17.90;10.80;;;;;;;-1.65;77.87;96020.63;5105647;28;20047;-64
2021/01/26 05:36:38;;;;;;;19.55;11.40;;;;;;;-1.59;78.18;96024.97;5111613;28;20070;-65
2021/01/26 05:39:05;;;;;;;21.52;12.32;;;;;;;-1.54;78.76;96022.34;5111076;28;20051;-66
2021/01/26 05:41:32;;;;;;;23.40;13.23;;;;;;;-1.67;79.86;96022.72;5111614;28;20047;-66
2021/01/26 05:44:00;;;;;;;23.52;12.88;;;;;;;-1.87;81.07;96023.28;5111511;28;20043;-66
2021/01/26 05:46:36;;;;;;;23.85;12.70;;;;;;;-1.87;81.36;96029.44;5111048;28;20032;-66
2021/01/26 05:49:04;;;;;;;24.38;13.48;;;;;;;-1.87;81.54;96033.97;5109764;28;20054;-66
2021/01/26 05:51:31;;;;;;;27.08;13.57;;;;;;;-1.84;81.48;96034.25;5111405;28;20073;-65
2021/01/26 05:54:00;;;;;;;24.00;13.05;;;;;;;-1.77;81.40;96038.63;5111423;28;20051;-66
2021/01/26 05:56:28;;;;;;;23.10;12.10;;;;;;;-1.76;81.22;96042.91;5110938;28;20043;-65
2021/01/26 05:58:54;;;;;;;21.35;11.63;;;;;;;-1.78;81.39;96053.00;5111488;28;20055;-64
2021/01/26 06:01:31;;;;;;;21.38;11.73;;;;;;;-1.78;81.25;96053.00;5110653;28;20043;-64
2021/01/26 06:04:10;;;;;;;20.15;12.50;;;;;;;-1.87;81.36;96058.00;5110180;28;20054;-64
2021/01/26 06:06:55;;;;;;;19.48;11.32;;;;;;;-1.81;80.73;96064.19;5111011;28;20051;-64
2021/01/26 06:09:31;;;;;;;19.15;11.25;;;;;;;-1.76;80.29;96050.91;5110323;28;20410;-64
2021/01/26 06:12:11;;;;;;;18.48;10.55;;;;;;;-1.79;80.32;96062.09;5111053;28;20502;-65
2021/01/26 06:14:39;;;;;;;16.85;10.27;;;;;;;-1.82;80.04;96062.59;5111049;28;20044;-66
2021/01/26 06:17:07;;;;;;;17.15;9.57;;;;;;;-1.76;79.78;96065.06;5110647;28;20047;-65
2021/01/26 06:19:33;;;;;;;19.50;10.73;;;;;;;-1.80;79.76;96068.47;5111082;28;20047;-66
2021/01/26 06:22:00;;;;;;;17.63;9.95;;;;;;;-1.75;79.48;96068.56;5111032;28;20036;-66
2021/01/26 06:24:28;;;;;;;17.67;9.77;;;;;;;-1.75;79.51;96064.00;5110530;28;20093;-66
2021/01/26 06:27:27;;;;;;;19.00;11.02;;;;;;;-1.75;79.17;96065.88;5110954;28;20056;-66
2021/01/26 06:30:06;;;;;;;22.77;10.10;;;;;;;-1.74;79.13;96065.63;5103540;28;20047;-64
2021/01/26 06:32:50;;;;;;;18.10;9.50;;;;;;;-1.75;78.83;96065.88;5110031;28;20047;-66
2021/01/26 06:35:19;;;;;;;16.67;9.93;;;;;;;-1.81;78.48;96057.00;5110390;28;20052;-66
2021/01/26 06:38:09;;;;;;;16.20;9.15;;;;;;;-1.80;78.65;96058.59;5110843;28;20054;-66
2021/01/26 06:40:47;;;;;;;17.58;10.05;;;;;;;-1.83;78.29;96061.75;5110744;28;20031;-66
2021/01/26 06:43:27;;;;;;;18.63;10.20;;;;;;;-1.80;78.37;96057.81;5110497;28;20067;-67
2021/01/26 06:46:02;;;;;;;17.90;9.93;;;;;;;-1.80;78.16;96061.28;5110835;28;20048;-66
2021/01/26 06:48:42;;;;;;;19.98;9.77;;;;;;;-1.78;78.14;96063.69;5110474;28;20092;-66
2021/01/26 06:51:37;;;;;;;15.90;9.38;;;;;;;-1.81;77.94;96074.88;5110077;28;20074;-67
2021/01/26 06:54:26;;;;;;;20.48;9.25;;;;;;;-1.72;77.68;96076.03;5110310;28;20048;-66
2021/01/26 06:57:08;;;;;;;17.15;9.13;;;;;;;-1.71;77.47;96075.00;5110683;28;20040;-66
2021/01/26 06:59:59;;;;;;;13.55;7.80;;;;;;;-1.73;76.92;96071.75;5110946;28;20035;-66
2021/01/26 07:02:50;;;;;;;17.67;9.00;;;;;;;-1.79;77.10;96072.75;5113088;28;20070;-65
2021/01/26 07:05:29;;;;;;;14.20;8.48;;;;;;;-1.82;77.25;96082.06;5110532;28;20059;-66
2021/01/26 07:08:18;;;;;;;14.70;8.50;;;;;;;-1.74;77.21;96078.16;5114471;28;20406;-66
2021/01/26 07:11:08;;;;;;;13.88;7.90;;;;;;;-1.75;77.17;96079.22;5114330;28;20038;-65
2021/01/26 07:13:41;;;;;;;16.45;8.40;;;;;;;-1.76;78.72;96090.97;5114360;28;20032;-66
2021/01/26 07:16:25;;;;;;;20.20;10.45;;;;;;;-1.97;81.88;96089.88;5113956;28;20044;-66
2021/01/26 07:19:27;;;;;;;21.50;10.65;;;;;;;-2.03;83.82;96078.31;5114299;28;20050;-65
2021/01/26 07:22:25;;;;;;;18.50;10.27;;;;;;;-2.07;84.14;96079.84;5114034;28;20107;-66
2021/01/26 07:25:05;;;;;;;20.40;9.82;;;;;;;-2.09;84.58;96073.94;5098248;28;20044;-65
2021/01/26 07:27:56;;;;;;;20.13;10.50;;;;;;;-2.10;84.70;96072.31;5113870;28;20063;-66
2021/01/26 07:30:25;;;;;;;18.08;10.52;;;;;;;-2.08;84.70;96072.91;5113379;28;20043;-66
2021/01/26 07:33:01;;;;;;;19.92;9.80;;;;;;;-2.09;84.32;96063.25;5103990;28;20048;-65
2021/01/26 07:35:34;;;;;;;19.08;10.88;;;;;;;-2.18;84.42;96062.09;5093396;28;20134;-66
2021/01/26 07:38:06;;;;;;;20.88;10.25;;;;;;;-2.23;84.89;96067.34;5093523;28;20047;-69
2021/01/26 07:40:35;;;;;;;17.90;9.38;;;;;;;-2.21;84.62;96057.22;5107869;28;20437;-70
2021/01/26 07:43:11;;;;;;;16.15;8.80;;;;;;;-2.10;83.81;96061.66;5113246;28;20051;-70
2021/01/26 07:45:47;;;;;;;15.35;8.43;;;;;;;-2.06;83.17;96068.13;5113949;28;20044;-72
2021/01/26 07:48:19;;;;;;;19.00;8.93;;;;;;;-2.03;82.64;96072.19;5113445;28;20039;-71
2021/01/26 07:50:50;;;;;;;15.60;8.50;;;;;;;-2.00;82.60;96071.66;5113828;28;20050;-71
2021/01/26 07:53:23;;;;;;;17.55;7.68;;;;;;;-1.94;81.63;96076.81;5111222;28;20040;-72
2021/01/26 07:55:53;;;;;;;11.77;7.47;;;;;;;-1.99;80.06;96066.06;5113559;28;20050;-71
2021/01/26 07:58:20;;;;;;;13.90;7.43;;;;;;;-1.97;79.29;96071.19;5113126;28;20050;-71
2021/01/26 08:00:48;;;;;;;10.85;6.55;;;;;;;-1.95;79.03;96069.88;5113112;28;20043;-70
2021/01/26 08:03:21;;;;;;;12.00;7.00;;;;;;;-1.97;79.51;96077.34;5100427;28;20048;-71
2021/01/26 08:05:50;;;;;;;11.85;6.40;;;;;;;-1.95;79.52;96083.22;5092787;28;20075;-72
2021/01/26 08:08:21;;;;;;;10.57;6.10;;;;;;;-1.95;79.93;96085.88;5092098;28;20086;-71
2021/01/26 08:10:48;;;;;;;12.70;5.72;;;;;;;-1.95;80.47;96095.75;5109209;28;20104;-72
2021/01/26 08:13:25;;;;;;;12.60;6.25;;;;;;;-1.99;81.58;96084.75;5111654;28;20051;-70
2021/01/26 08:15:53;;;;;;;12.98;6.63;;;;;;;-2.04;82.14;96091.88;5113120;28;20044;-71
2021/01/26 08:18:25;;;;;;;13.45;5.85;;;;;;;-2.03;82.80;96099.66;5112491;28;20048;-71
2021/01/26 08:20:52;;;;;;;11.07;5.95;;;;;;;-1.98;82.85;96091.72;5112686;28;20454;-72
2021/01/26 08:23:24;;;;;;;10.85;5.90;;;;;;;-2.00;82.77;96098.34;5112374;28;20054;-71
2021/01/26 08:25:53;;;;;;;10.88;6.50;;;;;;;-2.12;83.23;96101.91;5112766;28;20051;-70
2021/01/26 08:28:45;;;;;;;11.10;6.30;;;;;;;-2.13;83.42;96102.19;5112243;28;20044;-70
2021/01/26 08:31:27;;;;;;;10.82;6.28;;;;;;;-2.14;83.25;96100.53;5101239;28;20043;-70
2021/01/26 08:33:55;;;;;;;11.60;7.05;;;;;;;-2.12;82.86;96093.13;5109759;28;20059;-71
2021/01/26 08:36:32;;;;;;;11.52;6.85;;;;;;;-2.12;82.72;96095.78;5112253;28;20070;-70
2021/01/26 08:39:03;;;;;;;11.75;5.68;;;;;;;-2.06;82.73;96092.13;5112311;28;20050;-70
2021/01/26 08:41:45;;;;;;;15.00;6.35;;;;;;;-2.08;82.87;96096.13;5112261;28;20153;-71
2021/01/26 08:44:52;;;;;;;12.93;6.10;;;;;;;-2.08;83.09;96107.59;5111928;28;20620;-72
2021/01/26 08:47:45;;;;;;;11.48;5.82;;;;;;;-2.02;83.09;96098.59;5112171;28;20058;-71
2021/01/26 08:50:15;;;;;;;12.52;6.68;;;;;;;-2.05;83.07;96111.63;5111843;28;20050;-71
2021/01/26 08:52:42;;;;;;;14.18;6.97;;;;;;;-2.13;83.97;96115.50;5112283;28;20547;-70
2021/01/26 08:55:09;;;;;;;13.38;6.72;;;;;;;-2.12;84.49;96106.44;5111656;28;20491;-71
2021/01/26 08:57:42;;;;;;;13.85;7.82;;;;;;;-2.17;84.77;96103.72;5112009;28;20085;-70
2021/01/26 09:00:40;;;;;;;13.52;6.90;;;;;;;-2.21;84.74;96099.91;5111784;28;20040;-71
2021/01/26 09:03:32;;;;;;;11.80;6.85;;;;;;;-2.19;84.73;96105.81;5099625;28;20465;-71
2021/01/26 09:06:04;;;;;;;12.77;7.50;;;;;;;-2.15;84.55;96101.59;5091819;28;20044;-71
2021/01/26 09:08:52;;;;;;;13.73;6.43;;;;;;;-2.09;84.45;96097.94;5091448;28;20051;-70
2021/01/26 09:11:35;;;;;;;14.68;6.90;;;;;;;-2.06;84.62;96105.47;5091226;28;20047;-71
2021/01/26 09:14:14;;;;;;;13.20;6.38;;;;;;;-2.03;84.63;96113.00;5091600;28;20380;-70
2021/01/26 09:16:42;;;;;;;11.50;6.93;;;;;;;-2.03;84.50;96105.00;5091353;28;20047;-71
2021/01/26 09:19:17;;;;;;;12.20;5.90;;;;;;;-2.04;84.44;96110.56;5090855;28;20554;-71
2021/01/26 09:21:43;;;;;;;12.35;6.35;;;;;;;-1.96;84.57;96110.16;5091253;28;20044;-71
2021/01/26 09:24:11;;;;;;;9.80;6.03;;;;;;;-1.92;84.22;96121.97;5090581;28;20173;-71
2021/01/26 09:26:37;;;;;;;10.25;5.15;;;;;;;-1.86;83.75;96111.13;5091085;28;20068;-70
2021/01/26 09:29:03;;;;;;;10.15;5.53;;;;;;;-1.76;82.54;96117.66;5090751;28;20098;-71
2021/01/26 09:31:30;;;;;;;11.18;5.03;;;;;;;-1.68;81.85;96122.56;5091100;28;20097;-71
2021/01/26 09:34:01;;;;;;;6.82;4.18;;;;;;;-1.52;80.97;96116.38;5091335;28;20044;-71
2021/01/26 09:36:27;;;;;;;9.93;5.10;;;;;;;-1.41;80.05;96118.13;5090927;28;20040;-72
2021/01/26 09:39:01;;;;;;;7.78;4.57;;;;;;;-1.44;79.45;96126.63;5091975;28;20040;-72
2021/01/26 09:41:30;;;;;;;8.75;4.80;;;;;;;-1.37;78.76;96129.13;5111318;28;20043;-71
2021/01/26 09:44:02;;;;;;;9.77;4.85;;;;;;;-1.33;78.46;96140.94;5111536;28;20054;-71
2021/01/26 09:46:31;;;;;;;8.05;4.63;;;;;;;-1.32;78.07;96143.34;5110899;28;20043;-71
2021/01/26 09:49:09;;;;;;;6.82;4.13;;;;;;;-1.25;77.67;96143.19;5111447;28;20043;-71
2021/01/26 09:51:40;;;;;;;7.88;4.03;;;;;;;-1.24;77.77;96160.81;5111335;28;20077;-71
2021/01/26 09:54:12;;;;;;;7.72;4.10;;;;;;;-1.21;77.67;96172.84;5110921;28;20055;-71
2021/01/26 09:56:39;;;;;;;12.63;4.03;;;;;;;-1.21;77.41;96162.97;5111083;28;20035;-70
2021/01/26 09:59:08;;;;;;;7.65;4.53;;;;;;;-1.19;77.71;96158.22;5110808;28;20043;-71
2021/01/26 10:01:35;;;;;;;7.95;4.43;;;;;;;-1.22;77.69;96163.22;5111170;28;20085;-69
2021/01/26 10:04:04;;;;;;;8.40;4.60;;;;;;;-1.17;77.79;96133.91;5091790;28;20047;-70
2021/01/26 10:06:31;;;;;;;8.68;5.13;;;;;;;-1.21;77.11;96154.16;5090708;28;20043;-70
2021/01/26 10:09:12;;;;;;;10.68;5.00;;;;;;;-1.23;77.18;96148.25;5092160;28;20502;-70
2021/01/26 10:11:40;;;;;;;7.63;4.72;;;;;;;-1.18;77.43;96164.34;5110951;28;20112;-71
2021/01/26 10:14:18;;;;;;;11.27;4.95;;;;;;;-1.12;77.47;96147.31;5110115;28;20052;-71
2021/01/26 10:16:46;;;;;;;9.65;5.60;;;;;;;-1.13;76.47;96153.72;5111097;28;20093;-71
2021/01/26 10:19:15;;;;;;;10.48;6.15;;;;;;;-1.08;76.62;96145.78;5110209;28;20714;-71
2021/01/26 10:21:41;;;;;;;9.10;4.72;;;;;;;-0.94;76.62;96155.03;5110874;28;20063;-71
2021/01/26 10:24:12;;;;;;;8.05;4.90;;;;;;;-0.91;75.66;96165.22;5110253;28;20092;-71
2021/01/26 10:26:42;;;;;;;9.50;4.78;;;;;;;-0.83;75.96;96175.47;5111007;28;20048;-71
2021/01/26 10:29:22;;;;;;;9.48;4.50;;;;;;;-0.81;75.54;96184.03;5109781;28;20044;-71
2021/01/26 10:31:50;;;;;;;11.18;4.75;;;;;;;-0.85;75.17;96182.94;5109777;28;20051;-71
2021/01/26 10:34:34;;;;;;;9.07;5.40;;;;;;;-0.88;75.56;96172.75;5089795;28;20540;-71
2021/01/26 10:37:08;;;;;;;;;;;;;;;-0.85;75.32;96174.09;5095282;28;20044;-71
2021/01/26 10:39:34;;;;;;;9.68;5.13;;;;;;;-0.87;75.53;96166.34;5100623;28;19924;-71
2021/01/26 10:42:05;;;;;;;9.23;4.88;;;;;;;-0.86;74.79;96173.28;5114576;28;20094;-71
2021/01/26 10:44:31;;;;;;;7.60;4.90;;;;;;;-0.81;74.69;96167.19;5114526;28;20409;-71
2021/01/26 10:46:58;;;;;;;10.82;5.43;;;;;;;-0.74;74.44;96180.38;5115081;28;20044;-70
2021/01/26 10:49:30;;;;;;;7.88;4.60;;;;;;;-0.63;74.54;96166.06;5113270;28;20035;-71
2021/01/26 10:51:57;;;;;;;9.27;5.30;;;;;;;-0.57;73.61;96173.09;5114832;28;20071;-71
2021/01/26 10:54:23;;;;;;;8.50;5.25;;;;;;;-0.54;73.85;96177.91;5113807;28;20092;-71
2021/01/26 10:56:50;;;;;;;12.30;5.20;;;;;;;-0.56;74.30;96164.81;5114636;28;20096;-71
2021/01/26 10:59:17;;;;;;;10.15;4.97;;;;;;;-0.58;74.67;96168.78;5113531;28;20047;-70
2021/01/26 11:01:44;;;;;;;10.13;5.65;;;;;;;-0.65;74.52;96157.47;5103338;28;20085;-70
2021/01/26 11:04:10;;;;;;;10.90;5.00;;;;;;;-0.66;74.29;96166.56;5094731;28;20055;-70
2021/01/26 11:06:36;;;;;;;12.48;5.15;;;;;;;-0.65;74.24;96176.19;5094273;28;20051;-69
2021/01/26 11:09:04;;;;;;;10.13;5.32;;;;;;;-0.73;74.27;96171.28;5095122;28;20127;-70
2021/01/26 11:11:30;;;;;;;9.20;5.32;;;;;;;-0.73;74.25;96182.81;5114397;28;20055;-70
2021/01/26 11:13:58;;;;;;;9.75;4.68;;;;;;;-0.70;74.21;96171.59;5114299;28;20047;-69
2021/01/26 11:16:26;;;;;;;9.23;5.18;;;;;;;-0.73;74.52;96181.97;5114156;28;20043;-69
2021/01/26 11:18:52;;;;;;;9.63;5.10;;;;;;;-0.77;75.19;96170.19;5113959;28;20055;-69
2021/01/26 11:21:18;;;;;;;10.23;5.38;;;;;;;-0.78;75.60;96164.03;5113909;28;20092;-70
2021/01/26 11:23:44;;;;;;;11.98;5.10;;;;;;;-0.79;76.07;96167.75;5113666;28;20512;-72
2021/01/26 11:26:14;;;;;;;10.95;5.97;;;;;;;-0.79;76.31;96179.25;5113594;28;20494;-69
2021/01/26 11:28:40;;;;;;;11.82;5.68;;;;;;;-0.82;77.18;96174.41;5113979;28;20048;-70
2021/01/26 11:31:07;;;;;;;11.25;5.60;;;;;;;-0.88;77.13;96170.06;5113723;28;20050;-70
2021/01/26 11:33:35;;;;;;;10.63;5.55;;;;;;;-0.89;77.26;96176.50;5098115;28;20055;-70
2021/01/26 11:36:03;;;;;;;12.27;5.35;;;;;;;-0.86;76.75;96178.63;5093277;28;20141;-70
2021/01/26 11:38:30;;;;;;;9.13;4.95;;;;;;;-0.84;76.39;96187.22;5093505;28;20048;-69
2021/01/26 11:40:56;;;;;;;10.10;4.70;;;;;;;-0.79;76.60;96181.94;5110547;28;20517;-69
2021/01/26 11:43:22;;;;;;;10.02;4.97;;;;;;;-0.80;75.61;96177.63;5112419;28;20166;-69
2021/01/26 11:45:48;;;;;;;7.60;4.20;;;;;;;-0.73;75.51;96181.97;5113186;28;20067;-70
2021/01/26 11:48:14;;;;;;;9.75;4.70;;;;;;;-0.78;75.87;96169.38;5113244;28;20109;-69